createdAt,value
2019-02-20T00:03:11.391Z,18.67
2019-02-20T00:07:16.447Z,17.50
2019-02-20T00:11:21.523Z,16.43
2019-02-20T00:15:26.607Z,17.00
2019-02-20T00:19:31.616Z,18.90
2019-02-20T00:23:36.708Z,18.23
2019-02-20T00:27:41.711Z,19.00
2019-02-20T00:31:46.720Z,18.93
2019-02-20T00:35:51.719Z,18.73
2019-02-20T00:39:56.715Z,18.80
2019-02-20T00:44:03.360Z,18.67
2019-02-20T00:48:18.693Z,17.40
2019-02-20T00:52:34.072Z,19.93
2019-02-20T00:56:39.116Z,15.80
2019-02-20T01:00:44.096Z,18.57
2019-02-20T01:04:49.107Z,20.13
2019-02-20T01:08:54.164Z,20.40
2019-02-20T01:12:59.176Z,16.13
2019-02-20T01:17:04.237Z,18.63
2019-02-20T01:21:09.208Z,20.03
2019-02-20T01:25:14.216Z,18.47
2019-02-20T01:29:19.221Z,20.40
2019-02-20T01:33:24.227Z,19.83
2019-02-20T01:37:29.239Z,20.30
2019-02-20T01:41:34.235Z,19.13
2019-02-20T01:45:39.236Z,21.50
2019-02-20T01:49:44.245Z,20.43
2019-02-20T01:53:49.248Z,19.60
2019-02-20T01:57:54.252Z,15.57
2019-02-20T02:01:59.286Z,21.47
2019-02-20T02:06:04.284Z,21.37
2019-02-20T02:10:09.715Z,20.97
2019-02-20T02:14:14.723Z,19.83
2019-02-20T02:18:19.732Z,21.03
2019-02-20T02:22:24.744Z,19.57
2019-02-20T02:26:29.791Z,22.80
2019-02-20T02:30:34.871Z,21.87
2019-02-20T02:34:39.875Z,21.50
2019-02-20T02:38:44.885Z,21.17
2019-02-20T02:42:49.891Z,21.00
2019-02-20T02:46:54.885Z,20.73
2019-02-20T02:50:59.902Z,21.80
2019-02-20T02:55:05.843Z,21.07
2019-02-20T02:59:10.869Z,21.37
2019-02-20T03:03:15.915Z,21.23
2019-02-20T03:07:20.910Z,19.00
2019-02-20T03:11:25.976Z,21.50
2019-02-20T03:15:30.984Z,20.13
2019-02-20T03:19:35.987Z,21.03
2019-02-20T03:23:41.005Z,21.07
2019-02-20T03:27:46.009Z,15.33
2019-02-20T03:31:51.095Z,19.83
2019-02-20T03:35:56.117Z,20.00
2019-02-20T03:40:01.177Z,17.73
2019-02-20T03:44:06.299Z,20.40
2019-02-20T03:48:11.303Z,22.07
2019-02-20T03:52:16.290Z,22.70
2019-02-20T03:56:21.297Z,22.20
2019-02-20T04:00:26.300Z,21.67
2019-02-20T04:04:31.385Z,18.70
2019-02-20T04:08:36.383Z,18.60
2019-02-20T04:12:41.371Z,20.17
2019-02-20T04:16:46.375Z,19.30
2019-02-20T04:20:51.392Z,17.73
2019-02-20T04:24:56.398Z,18.83
2019-02-20T04:29:01.614Z,20.13
2019-02-20T04:33:06.695Z,19.83
2019-02-20T04:37:11.685Z,18.67
2019-02-20T04:41:16.789Z,17.33
2019-02-20T04:45:21.795Z,16.67
2019-02-20T04:49:26.838Z,19.00
2019-02-20T04:53:31.844Z,16.87
2019-02-20T04:57:37.800Z,19.40
2019-02-20T05:01:43.953Z,18.23
2019-02-20T05:05:48.940Z,17.77
2019-02-20T05:09:54.043Z,21.03
2019-02-20T05:13:59.059Z,18.20
2019-02-20T05:18:04.045Z,20.77
2019-02-20T05:22:09.050Z,17.63
2019-02-20T05:26:14.061Z,18.53
2019-02-20T05:30:19.071Z,20.57
2019-02-20T05:34:24.108Z,21.07
2019-02-20T05:38:29.103Z,21.30
2019-02-20T05:42:34.108Z,20.33
2019-02-20T05:46:39.111Z,21.30
2019-02-20T05:50:44.261Z,21.27
2019-02-20T05:54:49.253Z,18.33
2019-02-20T05:58:54.346Z,20.47
2019-02-20T06:02:59.330Z,20.67
2019-02-20T06:07:04.344Z,21.03
2019-02-20T06:11:14.862Z,20.13
2019-02-20T06:15:15.981Z,21.93
2019-02-20T06:19:21.044Z,20.83
2019-02-20T06:23:26.032Z,20.90
2019-02-20T06:27:31.037Z,20.70
2019-02-20T06:31:36.035Z,19.53
2019-02-20T06:35:41.116Z,19.40
2019-02-20T06:39:46.213Z,18.10
2019-02-20T06:43:51.238Z,19.97
2019-02-20T06:47:56.417Z,20.57
2019-02-20T06:52:01.452Z,17.77
2019-02-20T06:56:06.639Z,18.87
2019-02-20T07:00:13.827Z,19.10
2019-02-20T07:04:18.862Z,20.87
2019-02-20T07:08:41.788Z,17.20
2019-02-20T07:12:49.867Z,19.30
2019-02-20T07:17:01.192Z,18.60
2019-02-20T07:21:18.295Z,20.47
2019-02-20T07:25:50.632Z,18.67
2019-02-20T07:30:00.532Z,17.87
2019-02-20T07:34:05.664Z,19.40
2019-02-20T07:38:10.670Z,18.47
2019-02-20T07:42:15.756Z,18.27
2019-02-20T07:46:20.780Z,27.60
2019-02-20T07:50:25.781Z,18.20
2019-02-20T07:54:30.767Z,18.03
2019-02-20T07:58:35.783Z,17.30
2019-02-20T08:02:40.794Z,16.47
2019-02-20T08:06:46.009Z,17.40
2019-02-20T08:10:51.041Z,15.87
2019-02-20T08:14:56.413Z,16.87
2019-02-20T08:19:01.666Z,17.27
2019-02-20T08:23:06.942Z,17.13
2019-02-20T08:27:13.117Z,16.30
2019-02-20T08:31:18.120Z,17.03
2019-02-20T08:35:23.199Z,17.37
2019-02-20T08:39:28.657Z,16.17
2019-02-20T08:43:33.959Z,14.83
2019-02-20T08:47:39.227Z,16.43
2019-02-20T08:51:44.524Z,16.23
2019-02-20T08:55:49.856Z,15.80
2019-02-20T08:59:55.124Z,14.77
2019-02-20T09:04:00.445Z,15.00
2019-02-20T09:08:05.742Z,12.57
2019-02-20T09:12:11.051Z,13.47
2019-02-20T09:16:16.341Z,14.33
2019-02-20T09:20:21.624Z,13.90
2019-02-20T09:24:26.918Z,12.73
2019-02-20T09:28:32.219Z,14.30
2019-02-20T09:32:37.629Z,12.30
2019-02-20T09:36:42.920Z,12.60
2019-02-20T09:40:48.237Z,12.63
2019-02-20T09:44:53.501Z,15.23
2019-02-20T09:48:58.805Z,10.40
2019-02-20T09:53:04.100Z,11.60
2019-02-20T09:57:09.387Z,9.93
2019-02-20T10:01:14.714Z,10.67
2019-02-20T10:05:19.983Z,11.10
2019-02-20T10:09:25.260Z,8.57
2019-02-20T10:13:30.548Z,7.97
2019-02-20T10:17:35.876Z,8.57
2019-02-20T10:21:41.224Z,8.70
2019-02-20T10:25:47.658Z,7.47
2019-02-20T10:29:52.947Z,7.80
2019-02-20T10:33:58.232Z,8.40
2019-02-20T10:38:03.571Z,9.40
2019-02-20T10:42:08.904Z,8.13
2019-02-20T10:46:14.195Z,8.83
2019-02-20T10:50:19.505Z,9.03
2019-02-20T10:54:24.801Z,8.57
2019-02-20T10:58:30.075Z,8.90
2019-02-20T11:02:35.367Z,16.93
2019-02-20T11:06:40.835Z,8.70
2019-02-20T11:10:46.136Z,7.87
2019-02-20T11:14:51.480Z,8.63
2019-02-20T11:18:56.975Z,9.90
2019-02-20T11:23:02.276Z,9.70
2019-02-20T11:27:07.584Z,10.37
2019-02-20T11:31:12.847Z,9.90
2019-02-20T11:35:18.222Z,10.17
2019-02-20T11:39:23.522Z,8.87
2019-02-20T11:43:28.885Z,7.97
2019-02-20T11:47:34.174Z,9.17
2019-02-20T11:51:39.452Z,9.10
2019-02-20T11:55:44.815Z,9.70
2019-02-20T11:59:50.096Z,9.90
2019-02-20T12:03:55.420Z,8.63
2019-02-20T12:08:00.720Z,8.10
2019-02-20T12:12:06.144Z,8.80
2019-02-20T12:16:11.456Z,9.77
2019-02-20T12:20:17.832Z,9.87
2019-02-20T12:24:23.124Z,8.97
2019-02-20T12:28:28.496Z,9.50
2019-02-20T12:32:33.803Z,10.07
2019-02-20T12:36:39.076Z,9.53
2019-02-20T12:40:44.372Z,9.57
2019-02-20T12:44:49.676Z,10.50
2019-02-20T12:48:55.000Z,10.07
2019-02-20T12:53:00.532Z,9.23
2019-02-20T12:57:05.800Z,9.13
2019-02-20T13:01:11.244Z,8.63
2019-02-20T13:05:16.544Z,8.70
2019-02-20T13:09:22.116Z,7.97
2019-02-20T13:13:27.420Z,8.27
2019-02-20T13:17:33.833Z,8.13
2019-02-20T13:21:39.074Z,8.80
2019-02-20T13:25:44.346Z,9.13
2019-02-20T13:29:49.781Z,9.30
2019-02-20T13:33:55.079Z,8.73
2019-02-20T13:38:00.361Z,9.40
2019-02-20T13:42:05.632Z,9.93
2019-02-20T13:46:11.499Z,8.13
2019-02-20T13:50:16.958Z,9.37
2019-02-20T13:54:23.234Z,10.63
2019-02-20T13:58:28.687Z,9.60
2019-02-20T14:02:34.004Z,9.13
2019-02-20T14:06:39.295Z,8.97
2019-02-20T14:10:45.038Z,9.13
2019-02-20T14:14:50.312Z,8.83
2019-02-20T14:18:55.604Z,9.77
2019-02-20T14:23:00.895Z,10.00
2019-02-20T14:27:10.865Z,8.70
2019-02-20T14:31:13.129Z,9.37
2019-02-20T14:35:18.409Z,8.90
2019-02-20T14:39:23.696Z,8.63
2019-02-20T14:43:28.984Z,9.37
2019-02-20T14:47:34.315Z,7.20
2019-02-20T14:51:39.695Z,8.23
2019-02-20T14:55:44.978Z,7.90
2019-02-20T14:59:50.333Z,7.50
2019-02-20T15:03:55.648Z,6.10
2019-02-20T15:08:02.162Z,6.93
2019-02-20T15:12:07.574Z,7.43
2019-02-20T15:16:12.843Z,6.50
2019-02-20T15:20:18.224Z,7.20
2019-02-20T15:24:26.419Z,6.43
2019-02-20T15:28:33.425Z,5.83
2019-02-20T15:32:38.575Z,5.80
2019-02-20T15:36:43.851Z,6.60
2019-02-20T15:40:49.135Z,5.90
2019-02-20T15:44:54.576Z,6.42
2019-02-20T15:48:59.869Z,5.73
2019-02-20T15:53:06.909Z,6.00
2019-02-20T15:57:12.333Z,5.83
2019-02-20T16:01:17.849Z,6.33
2019-02-20T16:05:22.848Z,6.90
2019-02-20T16:09:28.127Z,7.13
2019-02-20T16:13:33.112Z,6.20
2019-02-20T16:17:38.400Z,6.60
2019-02-20T16:21:43.683Z,7.87
2019-02-20T16:25:48.968Z,8.23
2019-02-20T16:29:55.235Z,8.73
2019-02-20T16:34:00.371Z,9.03
2019-02-20T16:38:05.974Z,8.50
2019-02-20T16:42:11.464Z,9.27
2019-02-20T16:46:17.013Z,10.80
2019-02-20T16:50:22.056Z,12.37
2019-02-20T16:54:27.064Z,12.15
2019-02-20T16:58:32.043Z,11.73
2019-02-20T17:02:37.131Z,13.23
2019-02-20T17:06:45.340Z,14.07
2019-02-20T17:10:50.355Z,14.50
2019-02-20T17:14:55.383Z,14.87
2019-02-20T17:19:00.396Z,14.53
2019-02-20T17:23:05.551Z,15.20
2019-02-20T17:27:10.848Z,15.00
2019-02-20T17:31:15.860Z,14.50
2019-02-20T17:35:20.863Z,11.10
2019-02-20T17:39:25.884Z,13.80
2019-02-20T17:43:30.931Z,11.40
2019-02-20T17:47:35.950Z,13.37
2019-02-20T17:51:41.255Z,12.50
2019-02-20T17:55:46.274Z,15.13
2019-02-20T17:59:52.375Z,14.23
2019-02-20T18:03:57.409Z,12.67
2019-02-20T18:08:04.094Z,14.07
2019-02-20T18:12:09.431Z,13.40
2019-02-20T18:16:14.545Z,12.40
2019-02-20T18:20:19.844Z,14.43
2019-02-20T18:24:26.097Z,13.17
2019-02-20T18:28:31.166Z,14.13
2019-02-20T18:32:36.183Z,14.10
2019-02-20T18:36:41.261Z,12.37
2019-02-20T18:40:46.448Z,11.57
2019-02-20T18:44:51.472Z,13.07
2019-02-20T18:48:56.948Z,13.20
2019-02-20T18:53:01.970Z,13.07
2019-02-20T18:57:06.968Z,12.80
2019-02-20T19:01:12.011Z,12.33
2019-02-20T19:05:18.830Z,13.70
2019-02-20T19:09:24.678Z,12.20
2019-02-20T19:13:47.958Z,12.50
2019-02-20T19:18:20.382Z,11.90
2019-02-20T19:22:43.483Z,12.23
2019-02-20T19:26:51.669Z,14.17
2019-02-20T19:31:14.198Z,10.97
2019-02-20T19:35:25.315Z,13.50
2019-02-20T19:39:36.087Z,13.27
2019-02-20T19:43:50.200Z,14.47
2019-02-20T19:48:16.367Z,12.93
2019-02-20T19:52:32.359Z,14.10
2019-02-20T19:57:02.357Z,13.27
2019-02-20T20:01:19.804Z,15.10
2019-02-20T20:05:53.158Z,14.20
2019-02-20T20:10:18.220Z,14.13
2019-02-20T20:14:44.771Z,14.23
2019-02-20T20:19:13.658Z,13.60
2019-02-20T20:23:50.966Z,14.63
2019-02-20T20:28:15.819Z,14.33
2019-02-20T20:32:52.573Z,15.43
2019-02-20T20:36:54.101Z,14.53
2019-02-20T20:41:04.831Z,15.37
2019-02-20T20:45:37.441Z,15.63
2019-02-20T20:49:51.314Z,14.07
2019-02-20T20:54:08.289Z,15.73
2019-02-20T20:58:28.176Z,15.30
2019-02-20T21:02:36.280Z,15.83
2019-02-20T21:06:56.466Z,16.00
2019-02-20T21:11:13.412Z,16.93
2019-02-20T21:15:39.200Z,16.33
2019-02-20T21:20:12.697Z,17.20
2019-02-20T21:24:29.592Z,17.13
2019-02-20T21:28:53.079Z,15.57
2019-02-20T21:33:20.672Z,16.67
2019-02-20T21:37:34.616Z,17.27
2019-02-20T21:41:57.544Z,18.07
2019-02-20T21:46:14.311Z,17.33
2019-02-20T21:50:34.355Z,17.33
2019-02-20T21:55:03.011Z,17.10
2019-02-20T21:59:38.988Z,18.73
2019-02-20T22:03:44.408Z,18.07
2019-02-20T22:08:01.332Z,17.97
2019-02-20T22:12:36.832Z,18.13
2019-02-20T22:16:50.716Z,19.23
2019-02-20T22:21:18.120Z,17.60
2019-02-20T22:25:26.204Z,17.63
2019-02-20T22:29:54.822Z,17.47
2019-02-20T22:34:05.699Z,18.23
2019-02-20T22:38:28.752Z,19.20
2019-02-20T22:42:56.380Z,17.33
2019-02-20T22:47:19.539Z,19.03
2019-02-20T22:51:27.711Z,19.53
2019-02-20T22:55:59.940Z,16.77
2019-02-20T23:00:43.004Z,18.97
2019-02-20T23:05:12.186Z,17.53
2019-02-20T23:09:46.208Z,17.90
2019-02-20T23:14:28.079Z,16.10
2019-02-20T23:18:33.092Z,18.30
2019-02-20T23:22:38.153Z,17.80
2019-02-20T23:26:43.151Z,18.97
2019-02-20T23:30:48.161Z,17.20
2019-02-20T23:34:53.175Z,17.73
2019-02-20T23:38:58.179Z,17.07
2019-02-20T23:43:03.231Z,18.20
2019-02-20T23:47:08.301Z,18.83
2019-02-20T23:51:14.458Z,19.27
2019-02-20T23:55:19.392Z,17.20
2019-02-20T23:59:24.493Z,17.87
